createdAt,value
2022-09-21T00:04:25.305Z,11.63
2022-09-21T00:09:26.846Z,11.70
2022-09-21T00:14:28.550Z,11.58
2022-09-21T00:19:30.450Z,11.44
2022-09-21T00:24:31.984Z,11.54
2022-09-21T00:29:33.543Z,11.36
2022-09-21T00:34:35.070Z,11.36
2022-09-21T00:39:36.665Z,11.56
2022-09-21T00:44:38.231Z,11.61
2022-09-21T00:49:41.472Z,11.68
2022-09-21T00:54:47.192Z,11.68
2022-09-21T00:59:50.616Z,11.59
2022-09-21T01:04:55.950Z,11.71
2022-09-21T01:10:00.198Z,11.69
2022-09-21T01:15:29.047Z,11.63
2022-09-21T01:21:09.997Z,11.45
2022-09-21T01:26:22.123Z,11.41
2022-09-21T01:31:36.680Z,11.28
2022-09-21T01:36:39.824Z,11.20
2022-09-21T01:41:43.222Z,11.25
2022-09-21T01:46:46.532Z,11.39
2022-09-21T01:51:52.475Z,11.38
2022-09-21T01:57:11.245Z,11.27
2022-09-21T02:02:19.693Z,11.22
2022-09-21T02:07:21.324Z,11.10
2022-09-21T02:12:23.066Z,11.09
2022-09-21T02:17:36.872Z,11.27
2022-09-21T02:22:53.409Z,11.23
2022-09-21T02:28:35.112Z,10.99
2022-09-21T02:33:47.231Z,11.03
2022-09-21T02:39:10.650Z,10.93
2022-09-21T02:44:22.547Z,11.07
2022-09-21T02:49:41.902Z,11.03
2022-09-21T02:54:47.698Z,11.08
2022-09-21T02:59:50.388Z,10.97
2022-09-21T03:04:51.966Z,11.15
2022-09-21T03:09:54.287Z,11.10
2022-09-21T03:14:56.055Z,11.03
2022-09-21T03:19:57.636Z,11.09
2022-09-21T03:24:59.728Z,11.16
2022-09-21T03:30:02.322Z,11.05
2022-09-21T03:35:04.898Z,11.13
2022-09-21T03:40:06.902Z,11.28
2022-09-21T03:45:10.112Z,11.10
2022-09-21T03:50:12.055Z,11.19
2022-09-21T03:55:13.589Z,11.16
2022-09-21T04:00:15.906Z,10.92
2022-09-21T04:05:17.982Z,11.13
2022-09-21T04:10:21.323Z,11.02
2022-09-21T04:15:23.408Z,11.19
2022-09-21T04:20:25.228Z,11.17
2022-09-21T04:25:26.757Z,11.19
2022-09-21T04:30:29.134Z,11.06
2022-09-21T04:35:31.002Z,10.96
2022-09-21T04:40:32.625Z,11.10
2022-09-21T04:45:34.584Z,10.75
2022-09-21T04:50:37.928Z,10.52
2022-09-21T04:55:45.158Z,10.55
2022-09-21T05:00:50.857Z,10.69
2022-09-21T05:05:55.054Z,10.81
2022-09-21T05:10:56.628Z,10.87
2022-09-21T05:15:58.236Z,10.89
2022-09-21T05:21:01.056Z,10.98
2022-09-21T05:26:02.882Z,10.95
2022-09-21T05:31:18.588Z,10.95
2022-09-21T05:36:38.561Z,10.99
2022-09-21T05:41:40.570Z,11.17
2022-09-21T05:47:04.491Z,11.11
2022-09-21T05:52:16.516Z,11.05
2022-09-21T05:57:57.342Z,11.24
2022-09-21T06:03:05.273Z,11.18
2022-09-21T06:08:06.772Z,11.67
2022-09-21T06:13:08.358Z,11.46
2022-09-21T06:18:14.232Z,11.51
2022-09-21T06:23:18.634Z,11.72
2022-09-21T06:28:20.394Z,11.58
2022-09-21T06:33:23.577Z,11.66
2022-09-21T06:38:26.191Z,11.81
2022-09-21T06:43:27.705Z,11.71
2022-09-21T06:48:30.747Z,11.74
2022-09-21T06:53:33.872Z,11.68
2022-09-21T06:58:36.025Z,11.77
2022-09-21T07:03:38.914Z,11.87
2022-09-21T07:14:01.921Z,12.11
2022-09-21T07:19:11.090Z,12.18
2022-09-21T07:24:13.285Z,12.11
2022-09-21T07:29:15.022Z,12.11
2022-09-21T07:34:16.610Z,12.26
2022-09-21T07:39:18.206Z,12.23
2022-09-21T07:44:22.488Z,12.39
2022-09-21T07:49:24.063Z,12.36
2022-09-21T07:54:25.607Z,12.48
2022-09-21T07:59:27.489Z,12.61
2022-09-21T08:04:29.019Z,12.71
2022-09-21T08:09:30.663Z,12.41
2022-09-21T08:14:32.653Z,12.45
2022-09-21T08:19:34.607Z,12.58
2022-09-21T08:24:36.717Z,12.61
2022-09-21T08:29:38.498Z,12.79
2022-09-21T08:34:40.016Z,12.87
2022-09-21T08:39:41.702Z,12.87
2022-09-21T08:44:48.900Z,12.93
2022-09-21T08:49:57.066Z,13.04
2022-09-21T08:55:01.749Z,13.15
2022-09-21T09:00:08.306Z,13.17
2022-09-21T09:05:30.853Z,13.21
2022-09-21T09:10:42.260Z,13.26
2022-09-21T09:16:11.961Z,13.38
2022-09-21T09:21:27.886Z,13.39
2022-09-21T09:26:45.924Z,13.72
2022-09-21T09:31:48.399Z,13.91
2022-09-21T09:36:59.061Z,13.88
2022-09-21T09:42:22.639Z,13.94
2022-09-21T09:47:48.577Z,13.97
2022-09-21T09:52:54.312Z,13.94
2022-09-21T09:57:56.414Z,14.05
2022-09-21T10:02:58.909Z,14.30
2022-09-21T10:08:01.024Z,14.38
2022-09-21T10:13:46.036Z,14.44
2022-09-21T10:18:56.368Z,14.55
2022-09-21T10:24:18.913Z,14.58
2022-09-21T10:29:23.273Z,14.59
2022-09-21T10:34:27.778Z,14.72
2022-09-21T10:39:33.554Z,14.58
2022-09-21T10:44:39.357Z,14.53
2022-09-21T10:49:45.197Z,14.55
2022-09-21T10:54:49.035Z,14.62
2022-09-21T10:59:50.984Z,14.63
2022-09-21T11:05:17.172Z,14.70
2022-09-21T11:10:24.093Z,14.64
2022-09-21T11:15:45.818Z,14.46
2022-09-21T11:20:57.723Z,14.75
2022-09-21T11:26:09.118Z,14.59
2022-09-21T11:31:45.819Z,14.55
2022-09-21T11:37:01.234Z,14.68
2022-09-21T11:42:21.880Z,14.84
2022-09-21T11:47:52.748Z,14.96
2022-09-21T11:53:03.140Z,14.97
2022-09-21T11:58:29.687Z,15.02
2022-09-21T12:04:03.581Z,15.10
2022-09-21T12:09:11.425Z,15.14
2022-09-21T12:14:30.450Z,15.20
2022-09-21T12:19:46.050Z,15.16
2022-09-21T12:24:51.365Z,15.22
2022-09-21T12:29:57.379Z,15.29
2022-09-21T12:35:05.242Z,15.27
2022-09-21T12:40:23.113Z,15.31
2022-09-21T12:45:32.637Z,15.33
2022-09-21T12:50:48.468Z,15.26
2022-09-21T12:56:03.653Z,15.32
2022-09-21T13:01:32.061Z,15.38
2022-09-21T13:07:02.956Z,15.40
2022-09-21T13:12:12.051Z,15.36
2022-09-21T13:17:23.651Z,15.42
2022-09-21T13:22:26.900Z,15.50
2022-09-21T13:27:59.224Z,15.50
2022-09-21T13:33:01.949Z,15.37
2022-09-21T13:38:26.039Z,15.42
2022-09-21T13:44:05.727Z,15.48
2022-09-21T13:49:16.065Z,15.54
2022-09-21T13:54:17.996Z,15.58
2022-09-21T13:59:22.990Z,15.58
2022-09-21T14:04:28.550Z,15.57
2022-09-21T14:09:35.367Z,15.44
2022-09-21T14:14:38.447Z,15.42
2022-09-21T14:19:42.954Z,15.37
2022-09-21T14:24:45.334Z,15.36
2022-09-21T14:29:56.281Z,15.23
2022-09-21T14:35:02.263Z,14.98
2022-09-21T14:40:17.884Z,14.61
2022-09-21T14:45:25.007Z,14.42
2022-09-21T14:50:32.283Z,14.41
2022-09-21T14:56:01.155Z,14.47
2022-09-21T15:01:22.176Z,14.42
2022-09-21T15:06:51.492Z,14.53
2022-09-21T15:12:01.894Z,14.43
2022-09-21T15:17:24.051Z,14.53
2022-09-21T15:22:27.300Z,14.53
2022-09-21T15:27:32.937Z,14.51
2022-09-21T15:32:42.901Z,14.31
2022-09-21T15:37:45.780Z,14.40
2022-09-21T15:43:06.742Z,14.22
2022-09-21T15:48:12.381Z,14.07
2022-09-21T15:53:26.594Z,14.01
2022-09-21T15:58:37.134Z,13.88
2022-09-21T16:03:39.879Z,13.91
2022-09-21T16:08:41.484Z,13.86
2022-09-21T16:14:02.934Z,13.80
2022-09-21T16:19:04.612Z,13.77
2022-09-21T16:24:21.191Z,13.66
2022-09-21T16:29:27.716Z,13.58
2022-09-21T16:34:35.816Z,13.61
2022-09-21T16:39:37.405Z,13.70
2022-09-21T16:44:40.934Z,13.71
2022-09-21T16:49:42.977Z,13.58
2022-09-21T16:54:44.550Z,13.62
2022-09-21T16:59:46.568Z,13.59
2022-09-21T17:04:48.441Z,13.59
2022-09-21T17:09:51.164Z,13.65
2022-09-21T17:14:53.149Z,13.44
2022-09-21T17:19:54.674Z,13.35
2022-09-21T17:24:56.192Z,13.35
2022-09-21T17:30:00.624Z,13.16
2022-09-21T17:35:20.109Z,13.24
2022-09-21T17:40:24.111Z,13.28
2022-09-21T17:46:04.527Z,13.19
2022-09-21T17:51:06.551Z,13.12
2022-09-21T17:56:43.407Z,13.06
2022-09-21T18:01:45.136Z,13.17
2022-09-21T18:06:46.860Z,12.69
2022-09-21T18:12:29.243Z,12.77
2022-09-21T18:17:49.197Z,12.89
2022-09-21T18:23:02.372Z,12.87
2022-09-21T18:28:12.324Z,12.77
2022-09-21T18:33:46.056Z,12.61
2022-09-21T18:39:01.674Z,12.43
2022-09-21T18:44:15.399Z,12.62
2022-09-21T18:49:35.387Z,12.65
2022-09-21T18:54:37.235Z,12.58
2022-09-21T18:59:39.448Z,12.59
2022-09-21T19:04:44.828Z,12.41
2022-09-21T19:10:05.286Z,12.22
2022-09-21T19:15:48.724Z,12.46
2022-09-21T19:21:20.807Z,12.53
2022-09-21T19:27:03.939Z,12.35
2022-09-21T19:32:22.789Z,12.42
2022-09-21T19:37:24.399Z,12.37
2022-09-21T19:42:35.142Z,12.30
2022-09-21T19:47:44.428Z,12.16
2022-09-21T19:52:46.390Z,12.17
2022-09-21T19:58:06.858Z,11.85
2022-09-21T20:03:21.719Z,11.97
2022-09-21T20:08:30.900Z,11.93
2022-09-21T20:13:57.706Z,12.10
2022-09-21T20:19:14.623Z,12.00
2022-09-21T20:24:28.017Z,11.77
2022-09-21T20:29:29.589Z,11.75
2022-09-21T20:34:31.524Z,11.83
2022-09-21T20:39:33.027Z,11.68
2022-09-21T20:44:34.551Z,11.73
2022-09-21T20:49:36.120Z,11.81
2022-09-21T20:54:37.637Z,11.74
2022-09-21T20:59:39.442Z,11.91
2022-09-21T21:04:41.162Z,11.93
2022-09-21T21:09:42.740Z,11.75
2022-09-21T21:14:45.399Z,11.80
2022-09-21T21:19:46.980Z,11.73
2022-09-21T21:24:48.548Z,11.98
2022-09-21T21:29:51.137Z,11.96
2022-09-21T21:34:53.733Z,11.91
2022-09-21T21:39:56.237Z,11.75
2022-09-21T21:44:57.779Z,11.79
2022-09-21T21:50:00.419Z,11.83
2022-09-21T21:55:02.527Z,11.90
2022-09-21T22:00:05.808Z,11.84
2022-09-21T22:05:07.586Z,11.85
2022-09-21T22:10:09.666Z,11.70
2022-09-21T22:15:11.354Z,11.64
2022-09-21T22:20:12.912Z,11.68
2022-09-21T22:25:14.535Z,11.70
2022-09-21T22:30:16.071Z,11.60
2022-09-21T22:35:17.875Z,11.53
2022-09-21T22:40:20.367Z,11.66
2022-09-21T22:45:22.151Z,11.76
2022-09-21T22:50:23.630Z,11.79
2022-09-21T22:55:25.137Z,11.72
2022-09-21T23:00:26.668Z,11.48
2022-09-21T23:05:28.222Z,11.57
2022-09-21T23:10:29.760Z,11.65
2022-09-21T23:15:31.364Z,11.72
2022-09-21T23:20:33.361Z,11.71
2022-09-21T23:25:34.863Z,11.71
2022-09-21T23:30:36.430Z,11.82
2022-09-21T23:35:41.404Z,11.69
2022-09-21T23:40:42.956Z,11.59
2022-09-21T23:45:44.530Z,11.53
2022-09-21T23:50:46.032Z,11.69
2022-09-21T23:55:48.578Z,11.75
